Time;durP1;ratioP1;P1;durP2;ratioP2;P2;SDS_P1;SDS_P2;PMS_P1;PMS_P2;Temp;Humidity;BMP_temperature;BMP_pressure;BME280_temperature;BME280_humidity;BME280_pressure;Samples;Min_cycle;Max_cycle;Signal;HPM_P1;HPM_P2
2023/01/16 00:01:43;;;;;;;;;;;;;;;7.46;100.00;97419.31;5071020;28;20478;-73
2023/01/16 00:04:08;;;;;;;;;;;;;;;7.26;100.00;97404.81;5069661;28;20484;-74
2023/01/16 00:06:35;;;;;;;;;;;;;;;7.49;100.00;97401.22;5069670;28;20732;-74
2023/01/16 00:09:02;;;;;;;;;;;;;;;7.50;100.00;97400.34;5070391;28;20014;-74
2023/01/16 00:11:27;;;;;;;;;;;;;;;7.24;100.00;97387.88;5052685;28;19943;-74
2023/01/16 00:13:52;;;;;;;;;;;;;;;6.91;100.00;97383.31;5052098;28;20007;-74
2023/01/16 00:16:19;;;;;;;;;;;;;;;7.64;100.00;97386.03;5070549;28;20558;-74
2023/01/16 00:18:44;;;;;;;;;;;;;;;7.23;100.00;97368.25;5070632;28;19934;-74
2023/01/16 00:21:09;;;;;;;;;;;;;;;7.25;100.00;97362.19;5052239;28;19924;-74
2023/01/16 00:23:35;;;;;;;;;;;;;;;7.32;100.00;97366.13;5070490;28;19916;-74
2023/01/16 00:26:03;;;;;;;;;;;;;;;7.70;100.00;97367.84;5051961;28;19916;-74
2023/01/16 00:28:29;;;;;;;;;;;;;;;8.17;100.00;97355.31;5051083;28;19912;-74
2023/01/16 00:30:54;;;;;;;;;;;;;;;7.37;100.00;97327.53;5069983;28;19912;-74
2023/01/16 00:33:19;;;;;;;;;;;;;;;7.70;100.00;97342.22;5050503;28;20018;-74
2023/01/16 00:35:45;;;;;;;;;;;;;;;7.34;100.00;97345.56;5069618;28;19920;-74
2023/01/16 00:38:10;;;;;;;;;;;;;;;7.87;100.00;97344.00;5069533;28;19931;-74
2023/01/16 00:40:36;;;;;;;;;;;;;;;7.84;100.00;97336.44;5069891;28;20006;-74
2023/01/16 00:43:01;;;;;;;;;;;;;;;8.36;100.00;97321.91;5043801;28;19970;-74
2023/01/16 00:45:26;;;;;;;;;;;;;;;8.12;100.00;97312.88;5071508;28;19928;-74
2023/01/16 00:47:51;;;;;;;;;;;;;;;7.96;100.00;97285.41;5074429;28;19917;-74
2023/01/16 00:50:17;;;;;;;;;;;;;;;8.26;100.00;97287.38;5073401;28;20003;-74
2023/01/16 00:52:42;;;;;;;;;;;;;;;7.58;100.00;97281.31;5073598;28;19927;-74
2023/01/16 00:55:07;;;;;;;;;;;;;;;8.54;100.00;97288.56;5074301;28;19919;-74
2023/01/16 00:57:32;;;;;;;;;;;;;;;7.90;100.00;97267.78;5055099;28;19927;-74
2023/01/16 00:59:57;;;;;;;;;;;;;;;8.35;100.00;97263.81;5056692;28;20374;-75
2023/01/16 01:02:23;;;;;;;;;;;;;;;8.33;100.00;97255.38;5073338;28;19920;-74
2023/01/16 01:04:48;;;;;;;;;;;;;;;7.82;100.00;97243.41;5073690;28;19916;-74
2023/01/16 01:07:13;;;;;;;;;;;;;;;7.73;100.00;97265.19;5074529;28;19924;-74
2023/01/16 01:09:38;;;;;;;;;;;;;;;8.19;100.00;97268.06;5054841;28;19926;-74
2023/01/16 01:12:04;;;;;;;;;;;;;;;8.13;100.00;97251.25;5073971;28;19916;-74
2023/01/16 01:14:29;;;;;;;;;;;;;;;8.18;100.00;97256.97;5073238;28;19920;-74
2023/01/16 01:16:54;;;;;;;;;;;;;;;8.18;100.00;97251.00;5074821;28;19934;-74
2023/01/16 01:19:19;;;;;;;;;;;;;;;8.28;100.00;97243.66;5046452;28;19968;-74
2023/01/16 01:21:44;;;;;;;;;;;;;;;7.92;100.00;97224.94;5053981;28;20498;-74
2023/01/16 01:24:10;;;;;;;;;;;;;;;8.03;100.00;97226.13;5074092;28;20305;-73
2023/01/16 01:26:35;;;;;;;;;;;;;;;8.10;100.00;97222.38;5055083;28;20467;-73
2023/01/16 01:29:00;;;;;;;;;;;;;;;8.37;100.00;97220.16;5055143;28;19920;-73
2023/01/16 01:31:25;;;;;;;;;;;;;;;8.53;100.00;97203.06;5073702;28;19920;-73
2023/01/16 01:33:51;;;;;;;;;;;;;;;8.26;100.00;97205.31;5054499;28;19952;-75
2023/01/16 01:36:16;;;;;;;;;;;;;;;8.35;100.00;97204.84;5053433;28;19971;-74
2023/01/16 01:38:41;;;;;;;;;;;;;;;8.29;100.00;97202.56;5072392;28;19924;-76
2023/01/16 01:41:06;;;;;;;;;;;;;;;8.84;100.00;97192.91;5073275;28;19935;-74
2023/01/16 01:43:58;;;;;;;;;;;;;;;8.64;100.00;97176.81;5073983;28;19924;-74
2023/01/16 01:46:27;;;;;;;;;;;;;;;8.09;100.00;97159.19;5068342;28;20343;-75
2023/01/16 01:48:54;;;;;;;;;;;;;;;8.12;100.00;97159.03;5055288;28;20282;-74
2023/01/16 01:51:22;;;;;;;;;;;;;;;8.34;100.00;97157.00;5054469;28;19920;-75
2023/01/16 01:53:52;;;;;;;;;;;;;;;8.22;100.00;97149.94;5055658;28;19924;-74
2023/01/16 01:56:17;;;;;;;;;;;;;;;8.01;100.00;97145.94;5053604;28;19928;-75
2023/01/16 01:58:42;;;;;;;;;;;;;;;7.92;100.00;97142.94;5072571;28;19924;-75
2023/01/16 02:01:08;;;;;;;;;;;;;;;8.48;100.00;97156.28;5055179;28;20478;-74
2023/01/16 02:03:40;;;;;;;;;;;;;;;8.47;100.00;97148.69;5054797;28;20667;-74
2023/01/16 02:06:07;;;;;;;;;;;;;;;8.23;100.00;97151.59;5055165;28;19920;-75
2023/01/16 02:08:32;;;;;;;;;;;;;;;8.25;100.00;97139.53;5072400;28;20397;-74
2023/01/16 02:11:02;;;;;;;;;;;;;;;8.67;100.00;97124.53;5071937;28;19925;-74
2023/01/16 02:13:28;;;;;;;;;;;;;;;8.46;100.00;97118.81;5053496;28;19943;-74
2023/01/16 02:21:46;;;;;;;;;;;;;;;8.25;100.00;97103.63;5072086;28;19923;-74
2023/01/16 02:24:23;;;;;;;;;;;;;;;8.51;100.00;97102.28;5048013;28;19972;-74
2023/01/16 02:26:51;;;;;;;;;;;;;;;8.73;100.00;97083.94;5055546;28;19952;-74
2023/01/16 02:29:35;;;;;;;;;;;;;;;8.01;100.00;97058.78;5072656;28;20030;-75
2023/01/16 02:32:12;;;;;;;;;;;;;;;8.30;100.00;97063.19;5072578;28;20473;-75
2023/01/16 02:34:38;;;;;;;;;;;;;;;8.31;100.00;97056.31;5074020;28;19924;-74
2023/01/16 02:37:03;;;;;;;;;;;;;;;7.61;100.00;97045.47;5071520;28;19924;-74
2023/01/16 02:39:45;;;;;;;;;;;;;;;8.32;100.00;97057.97;5071899;28;19928;-74
2023/01/16 02:42:30;;;;;;;;;;;;;;;8.00;100.00;97044.31;5072809;28;19923;-74
2023/01/16 02:44:59;;;;;;;;;;;;;;;8.75;100.00;97035.94;5053588;28;20463;-74
2023/01/16 02:47:26;;;;;;;;;;;;;;;8.29;100.00;97047.88;5053885;28;19920;-74
2023/01/16 02:50:02;;;;;;;;;;;;;;;7.81;100.00;97036.78;5053887;28;20018;-74
2023/01/16 02:52:27;;;;;;;;;;;;;;;7.81;100.00;97052.97;5053066;28;19920;-74
2023/01/16 02:54:58;;;;;;;;;;;;;;;7.61;100.00;97048.88;5071881;28;20543;-74
2023/01/16 02:57:24;;;;;;;;;;;;;;;7.40;100.00;97043.09;5054378;28;19932;-74
2023/01/16 02:59:49;;;;;;;;;;;;;;;8.28;100.00;97053.91;5054010;28;19916;-74
2023/01/16 03:02:15;;;;;;;;;;;;;;;8.19;100.00;97029.59;5052294;28;19947;-74
2023/01/16 03:04:41;;;;;;;;;;;;;;;8.52;100.00;97019.25;5071780;28;19975;-74
2023/01/16 03:07:22;;;;;;;;;;;;;;;8.06;100.00;97008.09;5053871;28;19924;-75
2023/01/16 03:10:05;;;;;;;;;;;;;;;8.29;100.00;96987.16;5071153;28;20373;-74
2023/01/16 03:12:31;;;;;;;;;;;;;;;7.73;100.00;96984.19;5070957;28;19926;-74
2023/01/16 03:14:59;;;;;;;;;;;;;;;7.99;100.00;96999.09;5069682;28;19939;-74
2023/01/16 03:17:44;;;;;;;;;;;;;;;7.73;100.00;96973.94;5053137;28;20350;-74
2023/01/16 03:20:09;;;;;;;;;;;;;;;7.34;100.00;96981.97;5071878;28;19916;-74
2023/01/16 03:22:45;;;;;;;;;;;;;;;7.36;100.00;96992.13;5072268;28;20456;-74
2023/01/16 03:25:29;;;;;;;;;;;;;;;7.86;100.00;96989.47;5053301;28;19924;-74
2023/01/16 03:28:07;;;;;;;;;;;;;;;6.64;100.00;96992.28;5044353;28;19916;-74
2023/01/16 03:30:55;;;;;;;;;;;;;;;7.16;100.00;97008.50;5052710;28;20378;-74
2023/01/16 03:33:20;;;;;;;;;;;;;;;7.33;100.00;97016.16;5052414;28;20010;-74
2023/01/16 03:35:53;;;;;;;;;;;;;;;6.90;100.00;97008.06;5070963;28;20325;-74
2023/01/16 03:38:18;;;;;;;;;;;;;;;6.73;100.00;97015.72;5052113;28;19942;-75
2023/01/16 03:40:44;;;;;;;;;;;;;;;6.72;100.00;97019.19;5052742;28;19916;-74
2023/01/16 03:43:09;;;;;;;;;;;;;;;6.45;100.00;97022.16;5053369;28;20328;-74
2023/01/16 03:45:38;;;;;;;;;;;;;;;7.07;100.00;97036.22;5052132;28;20596;-74
2023/01/16 03:48:06;;;;;;;;;;;;;;;6.39;100.00;97025.84;5053548;28;19916;-75
2023/01/16 03:50:31;;;;;;;;;;;;;;;7.00;100.00;97041.69;5051372;28;19920;-75
2023/01/16 03:52:58;;;;;;;;;;;;;;;6.73;100.00;97033.63;5053244;28;19931;-75
2023/01/16 03:55:29;;;;;;;;;;;;;;;6.91;100.00;97036.16;5052885;28;20476;-75
2023/01/16 03:57:55;;;;;;;;;;;;;;;6.65;100.00;97029.72;5070228;28;19958;-75
2023/01/16 04:00:21;;;;;;;;;;;;;;;7.04;100.00;97045.78;5053942;28;20440;-75
2023/01/16 04:02:48;;;;;;;;;;;;;;;6.60;100.00;97043.63;5070418;28;19998;-75
2023/01/16 04:05:30;;;;;;;;;;;;;;;6.44;100.00;97052.03;5051716;28;19999;-75
2023/01/16 04:08:07;;;;;;;;;;;;;;;7.04;100.00;97066.25;5052877;28;19927;-75
2023/01/16 04:10:33;;;;;;;;;;;;;;;7.25;100.00;97069.47;5051836;28;19924;-75
2023/01/16 04:13:00;;;;;;;;;;;;;;;6.85;100.00;97035.63;5053304;28;19967;-75
2023/01/16 04:15:25;;;;;;;;;;;;;;;7.02;100.00;97030.47;5051999;28;19947;-75
2023/01/16 04:17:50;;;;;;;;;;;;;;;6.84;100.00;97022.00;5051208;28;19921;-75
2023/01/16 04:20:16;;;;;;;;;;;;;;;6.60;100.00;97018.06;5048314;28;19916;-75
2023/01/16 04:22:41;;;;;;;;;;;;;;;6.26;100.00;97010.25;5052499;28;19920;-75
2023/01/16 04:25:07;;;;;;;;;;;;;;;6.79;100.00;97010.31;5052797;28;19955;-75
2023/01/16 04:27:33;;;;;;;;;;;;;;;6.08;100.00;97008.53;5053387;28;19950;-75
2023/01/16 04:29:58;;;;;;;;;;;;;;;5.96;100.00;97015.06;5069107;28;20374;-75
2023/01/16 04:32:23;;;;;;;;;;;;;;;6.00;100.00;97015.75;5051769;28;19931;-75
2023/01/16 04:34:48;;;;;;;;;;;;;;;5.87;100.00;97016.25;5070719;28;19963;-78
2023/01/16 04:37:14;;;;;;;;;;;;;;;6.22;100.00;97030.91;5074019;28;19924;-75
2023/01/16 04:39:40;;;;;;;;;;;;;;;6.03;100.00;97025.81;5051141;28;20278;-74
2023/01/16 04:42:06;;;;;;;;;;;;;;;6.84;100.00;97046.72;5071391;28;19966;-76
2023/01/16 04:44:31;;;;;;;;;;;;;;;6.28;100.00;97031.47;5051716;28;20476;-75
2023/01/16 04:46:56;;;;;;;;;;;;;;;6.66;100.00;97025.44;5051236;28;20007;-74
2023/01/16 04:49:21;;;;;;;;;;;;;;;5.99;100.00;97009.78;5072661;28;19963;-82
2023/01/16 04:51:46;;;;;;;;;;;;;;;6.33;100.00;97020.19;5052643;28;19959;-77
2023/01/16 04:54:15;;;;;;;;;;;;;;;6.61;100.00;97023.09;5071401;28;19920;-76
2023/01/16 04:56:41;;;;;;;;;;;;;;;5.60;100.00;96994.50;5035308;28;19927;-76
2023/01/16 04:59:07;;;;;;;;;;;;;;;6.80;100.00;97017.94;5055091;28;19924;-76
2023/01/16 05:01:34;;;;;;;;;;;;;;;6.10;100.00;96999.09;5051546;28;19997;-76
2023/01/16 05:04:00;;;;;;;;;;;;;;;6.08;100.00;96988.94;5070571;28;19920;-75
2023/01/16 05:06:25;;;;;;;;;;;;;;;6.78;100.00;96999.28;5070247;28;19943;-75
2023/01/16 05:08:50;;;;;;;;;;;;;;;6.65;100.00;96981.13;5068226;28;19920;-75
2023/01/16 05:11:16;;;;;;;;;;;;;;;6.51;100.00;96968.19;5068977;28;19924;-75
2023/01/16 05:13:41;;;;;;;;;;;;;;;6.19;100.00;96970.53;5069938;28;19926;-75
2023/01/16 05:16:06;;;;;;;;;;;;;;;6.22;100.00;96972.94;5051590;28;19925;-75
2023/01/16 05:18:32;;;;;;;;;;;;;;;6.89;100.00;96981.66;5051302;28;19999;-75
2023/01/16 05:20:57;;;;;;;;;;;;;;;6.47;100.00;96956.44;5052507;28;19935;-75
2023/01/16 05:23:22;;;;;;;;;;;;;;;6.54;100.00;96949.31;5069109;28;19920;-75
2023/01/16 05:25:48;;;;;;;;;;;;;;;6.90;100.00;96941.53;5069141;28;19978;-75
2023/01/16 05:28:13;;;;;;;;;;;;;;;7.32;100.00;96942.81;5067988;28;19921;-75
2023/01/16 05:30:38;;;;;;;;;;;;;;;6.59;100.00;96898.75;5070550;28;19928;-75
2023/01/16 05:33:06;;;;;;;;;;;;;;;6.36;100.00;96874.31;5072828;28;19928;-76
2023/01/16 05:35:31;;;;;;;;;;;;;;;6.26;100.00;96874.78;5055327;28;19916;-76
2023/01/16 05:37:56;;;;;;;;;;;;;;;6.00;100.00;96880.34;5054548;28;19921;-75
2023/01/16 05:40:22;;;;;;;;;;;;;;;6.36;100.00;96880.25;5074348;28;20077;-75
2023/01/16 05:42:47;;;;;;;;;;;;;;;6.52;100.00;96889.72;5055985;28;20050;-75
2023/01/16 05:45:12;;;;;;;;;;;;;;;6.58;100.00;96874.09;5054933;28;19943;-76
2023/01/16 05:47:38;;;;;;;;;;;;;;;6.78;100.00;96862.88;5068855;28;19970;-76
2023/01/16 05:50:03;;;;;;;;;;;;;;;6.40;100.00;96834.94;5048445;28;19977;-75
2023/01/16 05:52:29;;;;;;;;;;;;;;;6.55;100.00;96834.16;5047785;28;19968;-75
2023/01/16 05:54:54;;;;;;;;;;;;;;;6.19;100.00;96817.19;5048434;28;20382;-75
2023/01/16 05:57:20;;;;;;;;;;;;;;;6.89;100.00;96835.00;5065946;28;20007;-75
2023/01/16 05:59:48;;;;;;;;;;;;;;;6.39;100.00;96810.28;5064781;28;20370;-76
2023/01/16 06:02:13;;;;;;;;;;;;;;;6.04;100.00;96798.34;5071140;28;19916;-77
2023/01/16 06:04:39;;;;;;;;;;;;;;;7.13;100.00;96807.28;5071007;28;19912;-76
2023/01/16 06:07:04;;;;;;;;;;;;;;;7.12;100.00;96782.59;5052987;28;19920;-76
2023/01/16 06:09:29;;;;;;;;;;;;;;;6.36;100.00;96754.19;5069872;28;20035;-75
2023/01/16 06:11:54;;;;;;;;;;;;;;;6.59;100.00;96753.84;5053542;28;19955;-75
2023/01/16 06:14:19;;;;;;;;;;;;;;;6.68;100.00;96760.19;5071178;28;19917;-75
2023/01/16 06:16:45;;;;;;;;;;;;;;;6.49;100.00;96768.00;5073185;28;19920;-74
2023/01/16 06:19:10;;;;;;;;;;;;;;;6.64;100.00;96762.09;5053898;28;19916;-76
2023/01/16 06:21:35;;;;;;;;;;;;;;;6.47;100.00;96754.44;5070500;28;19917;-75
2023/01/16 06:24:00;;;;;;;;;;;;;;;6.23;100.00;96746.31;5072800;28;20489;-75
2023/01/16 06:26:26;;;;;;;;;;;;;;;6.65;100.00;96743.25;5071044;28;19916;-75
2023/01/16 06:28:51;;;;;;;;;;;;;;;6.60;100.00;96729.91;5071497;28;19926;-75
2023/01/16 06:31:16;;;;;;;;;;;;;;;6.28;100.00;96706.00;5050963;28;20342;-75
2023/01/16 06:33:42;;;;;;;;;;;;;;;5.86;100.00;96708.09;5053652;28;20405;-75
2023/01/16 06:36:07;;;;;;;;;;;;;;;6.58;100.00;96725.78;5071653;28;19942;-75
2023/01/16 06:38:32;;;;;;;;;;;;;;;6.34;100.00;96713.38;5070918;28;20022;-75
2023/01/16 06:40:57;;;;;;;;;;;;;;;6.05;100.00;96702.09;5045532;28;19919;-77
2023/01/16 06:43:23;;;;;;;;;;;;;;;6.16;100.00;96722.81;5071363;28;19997;-76
2023/01/16 06:45:49;;;;;;;;;;;;;;;6.08;100.00;96712.13;5071212;28;19916;-75
2023/01/16 06:48:14;;;;;;;;;;;;;;;5.90;100.00;96715.59;5072073;28;20019;-75
2023/01/16 06:50:39;;;;;;;;;;;;;;;6.51;100.00;96729.56;5071079;28;19955;-76
2023/01/16 06:53:04;;;;;;;;;;;;;;;6.45;100.00;96716.19;5071230;28;19928;-75
2023/01/16 06:55:29;;;;;;;;;;;;;;;6.21;100.00;96708.06;5053520;28;19928;-76
2023/01/16 06:57:55;;;;;;;;;;;;;;;6.05;100.00;96692.69;5072770;28;20414;-75
2023/01/16 07:00:20;;;;;;;;;;;;;;;6.21;100.00;96685.06;5052920;28;19923;-76
2023/01/16 07:02:50;;;;;;;;;;;;;;;6.51;100.00;96702.25;5052831;28;20655;-76
2023/01/16 07:05:15;;;;;;;;;;;;;;;6.37;100.00;96681.72;5072194;28;19916;-75
2023/01/16 07:07:40;;;;;;;;;;;;;;;6.33;100.00;96680.22;5071358;28;19922;-75
2023/01/16 07:10:06;;;;;;;;;;;;;;;6.56;100.00;96671.31;5070712;28;19948;-75
2023/01/16 07:12:31;;;;;;;;;;;;;;;6.42;100.00;96651.59;5052778;28;19955;-75
2023/01/16 07:23:13;;;;;;;;;;;;;;;6.57;100.00;96607.31;5071776;28;19923;-78
2023/01/16 07:25:39;;;;;;;;;;;;;;;6.58;100.00;96611.53;5052842;28;20270;-74
2023/01/16 07:28:04;;;;;;;;;;;;;;;6.43;100.00;96584.22;5053191;28;19920;-76
2023/01/16 07:30:29;;;;;;;;;;;;;;;6.60;100.00;96591.81;5052343;28;19976;-76
2023/01/16 07:32:55;;;;;;;;;;;;;;;6.65;100.00;96582.16;5072241;28;19969;-76
2023/01/16 07:35:20;;;;;;;;;;;;;;;6.59;100.00;96554.38;5053650;28;19963;-77
2023/01/16 07:37:45;;;;;;;;;;;;;;;6.69;100.00;96549.56;5051478;28;19961;-76
2023/01/16 07:40:11;;;;;;;;;;;;;;;6.54;100.00;96523.09;5052831;28;19927;-76
2023/01/16 07:42:36;;;;;;;;;;;;;;;6.99;100.00;96511.19;5072407;28;19932;-76
2023/01/16 07:45:02;;;;;;;;;;;;;;;6.83;100.00;96505.31;5052823;28;19923;-76
2023/01/16 07:47:27;;;;;;;;;;;;;;;6.45;100.00;96469.91;5052913;28;19917;-75
2023/01/16 07:49:52;;;;;;;;;;;;;;;6.43;100.00;96476.84;5051977;28;19916;-76
2023/01/16 07:52:18;;;;;;;;;;;;;;;6.64;100.00;96470.53;5070979;28;19920;-76
2023/01/16 07:54:43;;;;;;;;;;;;;;;6.47;100.00;96458.69;5071283;28;19999;-76
2023/01/16 07:57:08;;;;;;;;;;;;;;;6.54;100.00;96459.16;5070560;28;20358;-76
2023/01/16 07:59:33;;;;;;;;;;;;;;;6.78;100.00;96451.84;5070748;28;19916;-76
2023/01/16 08:01:59;;;;;;;;;;;;;;;6.72;100.00;96453.94;5053848;28;19918;-76
2023/01/16 08:04:24;;;;;;;;;;;;;;;6.85;100.00;96429.28;5070480;28;20006;-77
2023/01/16 08:06:49;;;;;;;;;;;;;;;6.33;100.00;96414.38;5071551;28;20378;-76
2023/01/16 08:09:14;;;;;;;;;;;;;;;6.74;100.00;96423.97;5070384;28;20361;-76
2023/01/16 08:11:39;;;;;;;;;;;;;;;6.73;100.00;96433.38;5050840;28;20263;-76
2023/01/16 08:14:06;;;;;;;;;;;;;;;6.32;100.00;96411.00;5071488;28;19916;-76
2023/01/16 08:16:31;;;;;;;;;;;;;;;6.85;100.00;96403.72;5069801;28;19920;-76
2023/01/16 08:18:56;;;;;;;;;;;;;;;6.74;100.00;96398.41;5070343;28;20525;-76
2023/01/16 08:21:21;;;;;;;;;;;;;;;6.30;100.00;96383.91;5069778;28;19916;-76
2023/01/16 08:23:47;;;;;;;;;;;;;;;6.44;100.00;96381.38;5070472;28;19924;-76
2023/01/16 08:26:12;;;;;;;;;;;;;;;6.72;100.00;96379.75;5050993;28;21158;-77
2023/01/16 08:28:38;;;;;;;;;;;;;;;6.99;100.00;96377.31;5070047;28;19924;-76
2023/01/16 08:31:07;;;;;;;;;;;;;;;6.79;100.00;96360.56;5052325;28;20925;-77
2023/01/16 08:33:32;;;;;;;;;;;;;;;5.93;100.00;96329.72;5070925;28;19912;-75
2023/01/16 08:35:58;;;;;;;;;;;;;;;6.95;100.00;96355.38;5052546;28;19982;-73
2023/01/16 08:38:23;;;;;;;;;;;;;;;6.48;100.00;96339.38;5068305;28;20328;-73
2023/01/16 08:40:49;;;;;;;;;;;;;;;6.53;100.00;96324.59;5069280;28;20090;-73
2023/01/16 08:51:30;;;;;;;;;;;;;;;6.33;100.00;96289.13;5053154;28;19974;-74
2023/01/16 08:53:56;;;;;;;;;;;;;;;6.52;100.00;96311.88;5051140;28;19950;-74
2023/01/16 08:56:22;;;;;;;;;;;;;;;6.36;100.00;96317.06;5051425;28;19931;-73
2023/01/16 08:58:47;;;;;;;;;;;;;;;6.33;100.00;96319.81;5051236;28;20381;-74
2023/01/16 09:01:12;;;;;;;;;;;;;;;6.55;100.00;96327.88;5069906;28;19920;-74
2023/01/16 09:03:38;;;;;;;;;;;;;;;6.52;100.00;96328.03;5049562;28;20499;-73
2023/01/16 09:06:03;;;;;;;;;;;;;;;6.38;100.00;96315.25;5052263;28;20470;-74
2023/01/16 09:08:28;;;;;;;;;;;;;;;6.58;100.00;96337.91;5071238;28;20402;-74
2023/01/16 09:13:49;;;;;;;;;;;;;;;6.97;100.00;96343.31;5072476;28;19928;-74
2023/01/16 09:16:18;;;;;;;;;;;;;;;6.26;100.00;96327.81;5072039;28;20442;-74
2023/01/16 09:18:44;;;;;;;;;;;;;;;6.58;100.00;96348.13;5071727;28;19916;-74
2023/01/16 09:21:09;;;;;;;;;;;;;;;6.30;100.00;96343.00;5071593;28;19920;-76
2023/01/16 09:23:34;;;;;;;;;;;;;;;6.56;100.00;96352.53;5053732;28;19912;-74
2023/01/16 09:25:59;;;;;;;;;;;;;;;6.62;100.00;96364.13;5071702;28;20256;-74
2023/01/16 09:28:25;;;;;;;;;;;;;;;5.98;100.00;96343.91;5073962;28;19928;-74
2023/01/16 09:30:50;;;;;;;;;;;;;;;6.19;100.00;96346.16;5074685;28;19917;-75
2023/01/16 09:33:15;;;;;;;;;;;;;;;6.51;100.00;96357.09;5070760;28;19916;-74
2023/01/16 09:35:41;;;;;;;;;;;;;;;6.10;100.00;96352.63;5071349;28;19928;-76
2023/01/16 09:38:06;;;;;;;;;;;;;;;5.72;100.00;96332.56;5054546;28;19920;-74
2023/01/16 09:40:31;;;;;;;;;;;;;;;6.30;100.00;96368.56;5071600;28;20007;-75
2023/01/16 09:45:47;;;;;;;;;;;;;;;6.25;100.00;96371.38;5072781;28;20666;-74
2023/01/16 09:48:19;;;;;;;;;;;;;;;6.60;100.00;96382.13;5055428;28;20003;-75
2023/01/16 09:50:46;;;;;;;;;;;;;;;6.61;100.00;96377.81;5054420;28;19942;-75
2023/01/16 09:58:57;;;;;;;;;;;;;;;6.46;100.00;96343.75;5058447;28;19919;-76
2023/01/16 10:01:26;;;;;;;;;;;;;;;6.09;100.00;96330.53;5054066;28;19920;-75
2023/01/16 10:03:51;;;;;;;;;;;;;;;6.08;100.00;96334.00;5055252;28;19924;-75
2023/01/16 10:06:25;;;;;;;;;;;;;;;6.99;100.00;96355.09;5055959;28;19912;-75
2023/01/16 10:08:53;;;;;;;;;;;;;;;6.21;100.00;96309.38;5074131;28;19922;-75
2023/01/16 10:11:23;;;;;;;;;;;;;;;6.46;100.00;96324.13;5075068;28;20031;-75
2023/01/16 10:14:01;;;;;;;;;;;;;;;5.98;100.00;96281.78;5056004;28;19916;-75
2023/01/16 10:16:33;;;;;;;;;;;;;;;6.25;100.00;96295.53;5054673;28;20560;-75
2023/01/16 10:18:58;;;;;;;;;;;;;;;6.73;100.00;96281.66;5071717;28;19918;-75
2023/01/16 10:21:29;;;;;;;;;;;;;;;6.30;100.00;96266.34;5072357;28;19971;-77
2023/01/16 10:24:00;;;;;;;;;;;;;;;6.30;100.00;96266.34;5073529;28;20380;-75
2023/01/16 10:26:29;;;;;;;;;;;;;;;6.84;100.00;96269.03;5072338;28;19931;-76
2023/01/16 10:28:57;;;;;;;;;;;;;;;6.95;100.00;96251.28;5055136;28;19971;-76
2023/01/16 10:31:22;;;;;;;;;;;;;;;6.89;100.00;96244.00;5054448;28;19913;-75
2023/01/16 10:33:59;;;;;;;;;;;;;;;7.03;100.00;96238.84;5071074;28;19923;-76
2023/01/16 10:36:31;;;;;;;;;;;;;;;7.58;100.00;96226.84;5053248;28;19927;-75
2023/01/16 10:38:57;;;;;;;;;;;;;;;6.26;100.00;96194.94;5054260;28;19928;-76
2023/01/16 10:50:02;;;;;;;;;;;;;;;6.31;100.00;96193.84;5055998;28;19923;-75
2023/01/16 10:52:27;;;;;;;;;;;;;;;6.52;100.00;96209.63;5053195;28;19920;-74
2023/01/16 10:54:53;;;;;;;;;;;;;;;6.37;100.00;96217.31;5071736;28;19916;-75
2023/01/16 10:57:19;;;;;;;;;;;;;;;6.42;100.00;96211.91;5053799;28;19981;-75
2023/01/16 10:59:44;;;;;;;;;;;;;;;6.94;100.00;96216.41;5053089;28;20021;-74
2023/01/16 11:02:39;;;;;;;;;;;;;;;6.97;100.00;96205.97;5054755;28;20393;-74
2023/01/16 11:05:23;;;;;;;;;;;;;;;6.77;100.00;96198.72;5055673;28;19927;-75
2023/01/16 11:07:48;;;;;;;;;;;;;;;6.90;100.00;96189.38;5071375;28;19932;-76
2023/01/16 11:10:16;;;;;;;;;;;;;;;6.57;100.00;96187.13;5053276;28;20497;-75
2023/01/16 11:18:28;;;;;;;;;;;;;;;6.69;100.00;96153.97;5053631;28;20012;-75
2023/01/16 11:20:53;;;;;;;;;;;;;;;6.17;100.00;96143.56;5069026;28;19959;-74
2023/01/16 11:23:19;;;;;;;;;;;;;;;6.55;100.00;96148.09;5068937;28;19940;-75
2023/01/16 11:25:45;;;;;;;;;;;;;;;6.90;100.00;96149.25;5051895;28;19921;-75
2023/01/16 11:28:12;;;;;;;;;;;;;;;6.20;100.00;96143.38;5050232;28;19920;-75
2023/01/16 11:30:38;;;;;;;;;;;;;;;6.52;100.00;96138.03;5053001;28;19916;-75
2023/01/16 11:33:07;;;;;;;;;;;;;;;6.28;100.00;96133.50;5053599;28;19919;-74
2023/01/16 11:35:33;;;;;;;;;;;;;;;6.47;100.00;96130.66;5053732;28;19920;-77
2023/01/16 11:37:58;;;;;;;;;;;;;;;6.41;100.00;96116.53;5052418;28;19927;-75
2023/01/16 11:40:24;;;;;;;;;;;;;;;6.22;100.00;96114.25;5052076;28;19916;-75
2023/01/16 11:46:07;;;;;;;;;;;;;;;6.33;100.00;96100.00;5054865;28;19923;-75
2023/01/16 11:48:40;;;;;;;;;;;;;;;6.50;100.00;96099.78;5056736;28;19920;-75
2023/01/16 11:51:06;;;;;;;;;;;;;;;7.04;100.00;96107.44;5070277;28;20396;-75
2023/01/16 11:53:32;;;;;;;;;;;;;;;6.76;100.00;96071.75;5069649;28;20014;-76
2023/01/16 11:56:13;;;;;;;;;;;;;;;6.55;100.00;96067.09;5051808;28;20058;-75
2023/01/16 11:58:50;;;;;;;;;;;;;;;6.48;100.00;96055.63;5069768;28;19920;-75
2023/01/16 12:01:15;;;;;;;;;;;;;;;7.08;100.00;96065.38;5051789;28;20164;-75
2023/01/16 12:03:50;;;;;;;;;;;;;;;6.72;100.00;95999.50;5069152;28;20369;-74
2023/01/16 12:06:15;;;;;;;;;;;;;;;7.19;100.00;96035.72;5070445;28;19912;-75
2023/01/16 12:08:47;;;;;;;;;;;;;;;6.51;100.00;96004.28;5072663;28;20006;-74
2023/01/16 12:11:15;;;;;;;;;;;;;;;6.57;100.00;95993.66;5069243;28;19916;-75
2023/01/16 12:16:42;;;;;;;;;;;;;;;6.80;100.00;95974.28;5070034;28;19969;-75
2023/01/16 12:19:13;;;;;;;;;;;;;;;6.80;100.00;95964.03;5070664;28;19920;-75
2023/01/16 12:21:42;;;;;;;;;;;;;;;6.63;100.00;95943.84;5071292;28;19990;-75
2023/01/16 12:24:19;;;;;;;;;;;;;;;6.83;100.00;95943.38;5051963;28;20632;-75
2023/01/16 12:26:45;;;;;;;;;;;;;;;7.00;100.00;95939.72;5070280;28;19996;-75
2023/01/16 12:29:21;;;;;;;;;;;;;;;6.93;100.00;95910.31;5070037;28;20382;-76
2023/01/16 12:31:50;;;;;;;;;;;;;;;7.08;100.00;95895.69;5051542;28;20282;-76
2023/01/16 12:34:15;;;;;;;;;;;;;;;7.97;100.00;95910.81;5052888;28;19963;-76
2023/01/16 12:36:53;;;;;;;;;;;;;;;7.06;100.00;95865.06;5069177;28;19960;-76
2023/01/16 12:39:25;;;;;;;;;;;;;;;8.01;100.00;95879.84;5071958;28;19930;-76
2023/01/16 12:44:47;;;;;;;;;;;;;;;7.29;100.00;95814.03;5054913;28;19973;-76
2023/01/16 12:47:12;;;;;;;;;;;;;;;7.43;100.00;95823.31;5068387;28;20337;-76
2023/01/16 12:49:44;;;;;;;;;;;;;;;7.88;100.00;95826.91;5069821;28;19948;-76
2023/01/16 12:52:10;;;;;;;;;;;;;;;7.72;100.00;95799.00;5052831;28;19924;-77
2023/01/16 12:54:52;;;;;;;;;;;;;;;7.79;100.00;95801.94;5068274;28;19920;-76
2023/01/16 12:57:21;;;;;;;;;;;;;;;8.18;100.00;95803.34;5060125;28;19920;-76
2023/01/16 12:59:50;;;;;;;;;;;;;;;8.37;100.00;95794.31;5069155;28;19976;-76
2023/01/16 13:02:24;;;;;;;;;;;;;;;7.94;100.00;95762.41;5052812;28;19920;-76
2023/01/16 13:04:51;;;;;;;;;;;;;;;7.95;100.00;95755.53;5070407;28;20015;-76
2023/01/16 13:07:16;;;;;;;;;;;;;;;7.28;100.00;95730.53;5052950;28;19942;-78
2023/01/16 13:13:20;;;;;;;;;;;;;;;8.11;100.00;95737.28;5068690;28;20418;-76
2023/01/16 13:15:24;;;;;;;;;;;;;;;7.52;100.00;95680.09;5054469;28;19926;-77
2023/01/16 13:18:00;;;;;;;;;;;;;;;7.26;100.00;95689.66;5052292;28;19920;-76
2023/01/16 13:20:26;;;;;;;;;;;;;;;6.98;100.00;95685.72;5051698;28;20010;-76
2023/01/16 13:22:54;;;;;;;;;;;;;;;7.06;100.00;95678.28;5051842;28;20457;-75
2023/01/16 13:25:38;;;;;;;;;;;;;;;7.82;100.00;95681.31;5070876;28;19997;-75
2023/01/16 13:28:07;;;;;;;;;;;;;;;7.26;100.00;95663.28;5061335;28;19920;-76
2023/01/16 13:30:32;;;;;;;;;;;;;;;6.85;100.00;95659.38;5041023;28;19920;-76
2023/01/16 13:33:06;;;;;;;;;;;;;;;7.07;100.00;95662.03;5045402;28;19974;-75
2023/01/16 13:35:37;;;;;;;;;;;;;;;7.42;100.00;95666.34;5044813;28;19916;-75
2023/01/16 13:38:10;;;;;;;;;;;;;;;7.18;100.00;95652.75;5036375;28;19923;-76
2023/01/16 13:40:48;;;;;;;;;;;;;;;7.30;100.00;95651.88;5045319;28;19927;-75
2023/01/16 13:46:03;;;;;;;;;;;;;;;6.87;100.00;95637.88;5049023;28;19931;-76
2023/01/16 13:48:32;;;;;;;;;;;;;;;7.13;100.00;95640.28;5043786;28;19920;-75
2023/01/16 13:51:01;;;;;;;;;;;;;;;7.00;100.00;95631.88;5042899;28;19950;-76
2023/01/16 13:53:28;;;;;;;;;;;;;;;7.62;100.00;95639.28;5047214;28;20528;-76